createdAt,value
2022-09-10T00:00:55.458Z,96.47
2022-09-10T00:03:58.263Z,96.56
2022-09-10T00:07:00.826Z,96.76
2022-09-10T00:10:03.398Z,97.10
2022-09-10T00:13:07.171Z,96.82
2022-09-10T00:16:12.767Z,97.04
2022-09-10T00:19:16.152Z,96.81
2022-09-10T00:22:18.699Z,96.45
2022-09-10T00:25:21.170Z,96.41
2022-09-10T00:28:25.949Z,95.78
2022-09-10T00:31:30.149Z,95.83
2022-09-10T00:34:33.004Z,95.58
2022-09-10T00:37:35.410Z,95.93
2022-09-10T00:40:38.795Z,95.57
2022-09-10T00:44:02.516Z,95.90
2022-09-10T00:47:06.691Z,95.67
2022-09-10T00:50:30.647Z,95.62
2022-09-10T00:53:33.642Z,95.59
2022-09-10T00:56:36.973Z,95.71
2022-09-10T00:59:42.013Z,95.90
2022-09-10T01:02:44.594Z,95.56
2022-09-10T01:05:47.607Z,96.09
2022-09-10T01:08:50.093Z,95.64
2022-09-10T01:12:22.236Z,95.95
2022-09-10T01:15:30.727Z,95.99
2022-09-10T01:18:51.696Z,96.00
2022-09-10T01:22:20.368Z,96.18
2022-09-10T01:25:50.041Z,96.13
2022-09-10T01:29:34.656Z,96.68
2022-09-10T01:32:55.279Z,97.25
2022-09-10T01:36:05.354Z,96.77
2022-09-10T01:39:07.966Z,97.25
2022-09-10T01:42:10.523Z,96.95
2022-09-10T01:45:15.109Z,97.52
2022-09-10T01:48:20.562Z,97.65
2022-09-10T01:51:41.667Z,98.00
2022-09-10T01:55:10.754Z,97.92
2022-09-10T01:58:28.621Z,98.07
2022-09-10T02:01:43.617Z,97.73
2022-09-10T02:04:48.039Z,97.98
2022-09-10T02:07:53.766Z,98.57
2022-09-10T02:10:59.378Z,98.25
2022-09-10T02:14:02.018Z,98.55
2022-09-10T02:17:04.536Z,98.41
2022-09-10T02:20:11.640Z,98.04
2022-09-10T02:23:15.070Z,98.07
2022-09-10T02:26:17.557Z,97.89
2022-09-10T02:29:19.931Z,97.78
2022-09-10T02:32:22.456Z,97.97
2022-09-10T02:35:24.941Z,98.02
2022-09-10T02:38:29.285Z,97.48
2022-09-10T02:41:34.314Z,97.56
2022-09-10T02:44:37.621Z,97.69
2022-09-10T02:47:40.287Z,97.64
2022-09-10T02:50:45.558Z,97.62
2022-09-10T02:53:47.960Z,97.38
2022-09-10T02:56:50.527Z,97.78
2022-09-10T02:59:56.949Z,97.42
2022-09-10T03:03:02.958Z,97.09
2022-09-10T03:06:06.078Z,96.88
2022-09-10T03:09:08.536Z,96.66
2022-09-10T03:12:10.987Z,96.48
2022-09-10T03:15:13.641Z,96.17
2022-09-10T03:18:16.147Z,95.77
2022-09-10T03:21:21.481Z,95.53
2022-09-10T03:24:25.387Z,95.61
2022-09-10T03:27:27.808Z,95.56
2022-09-10T03:30:30.250Z,95.62
2022-09-10T03:33:32.963Z,95.86
2022-09-10T03:36:35.588Z,96.58
2022-09-10T03:39:38.061Z,96.91
2022-09-10T03:42:40.690Z,97.19
2022-09-10T03:45:44.601Z,97.27
2022-09-10T03:48:47.125Z,97.57
2022-09-10T03:51:49.548Z,98.21
2022-09-10T03:54:52.206Z,98.11
2022-09-10T03:57:54.634Z,98.20
2022-09-10T04:00:57.126Z,98.98
2022-09-10T04:03:59.570Z,99.12
2022-09-10T04:07:02.058Z,99.14
2022-09-10T04:10:04.910Z,99.38
2022-09-10T04:13:07.433Z,99.58
2022-09-10T04:16:10.059Z,99.50
2022-09-10T04:19:12.974Z,99.47
2022-09-10T04:22:15.390Z,99.32
2022-09-10T04:25:19.042Z,99.15
2022-09-10T04:28:21.415Z,99.33
2022-09-10T04:31:23.882Z,98.96
2022-09-10T04:34:26.358Z,98.79
2022-09-10T04:37:29.504Z,98.77
2022-09-10T04:40:32.149Z,98.86
2022-09-10T04:43:34.877Z,98.30
2022-09-10T04:46:37.333Z,98.21
2022-09-10T04:49:39.768Z,98.08
2022-09-10T04:52:43.425Z,97.71
2022-09-10T04:55:47.237Z,97.35
2022-09-10T04:58:49.634Z,97.49
2022-09-10T05:01:52.392Z,97.22
2022-09-10T05:04:54.940Z,97.28
2022-09-10T05:07:57.497Z,96.69
2022-09-10T05:11:03.009Z,96.81
2022-09-10T05:14:05.499Z,96.50
2022-09-10T05:17:08.151Z,96.95
2022-09-10T05:20:10.983Z,96.57
2022-09-10T05:23:13.525Z,96.40
2022-09-10T05:26:15.973Z,96.43
2022-09-10T05:29:18.510Z,96.55
2022-09-10T05:32:20.876Z,97.09
2022-09-10T05:35:23.417Z,96.78
2022-09-10T05:38:26.687Z,96.79
2022-09-10T05:41:31.248Z,96.72
2022-09-10T05:44:34.073Z,96.94
2022-09-10T05:47:37.726Z,96.61
2022-09-10T05:50:40.434Z,96.49
2022-09-10T05:53:42.915Z,96.26
2022-09-10T05:56:45.399Z,96.01
2022-09-10T05:59:47.757Z,96.54
2022-09-10T06:02:51.240Z,96.80
2022-09-10T06:05:55.915Z,96.81
2022-09-10T06:08:58.376Z,97.01
2022-09-10T06:12:01.040Z,96.90
2022-09-10T06:15:03.815Z,96.34
2022-09-10T06:18:06.743Z,96.34
2022-09-10T06:21:13.137Z,95.51
2022-09-10T06:24:15.604Z,95.63
2022-09-10T06:27:18.151Z,95.45
2022-09-10T06:30:20.938Z,95.17
2022-09-10T06:33:23.448Z,94.95
2022-09-10T06:36:28.683Z,94.52
2022-09-10T06:39:31.146Z,94.43
2022-09-10T06:42:33.588Z,94.14
2022-09-10T06:45:40.164Z,94.19
2022-09-10T06:48:47.571Z,93.85
2022-09-10T06:51:51.039Z,93.50
2022-09-10T06:54:53.548Z,93.14
2022-09-10T06:57:55.964Z,91.75
2022-09-10T07:00:58.579Z,91.35
2022-09-10T07:04:01.977Z,91.19
2022-09-10T07:07:04.462Z,90.54
2022-09-10T07:10:07.739Z,88.42
2022-09-10T07:13:10.905Z,86.65
2022-09-10T07:16:18.496Z,86.51
2022-09-10T07:19:21.114Z,84.93
2022-09-10T07:22:23.669Z,85.24
2022-09-10T07:25:26.776Z,84.89
2022-09-10T07:28:29.219Z,83.49
2022-09-10T07:31:38.405Z,83.72
2022-09-10T07:34:41.189Z,84.34
2022-09-10T07:37:45.307Z,82.63
2022-09-10T07:40:48.740Z,82.10
2022-09-10T07:43:53.973Z,81.46
2022-09-10T07:46:56.581Z,81.14
2022-09-10T07:50:00.370Z,81.45
2022-09-10T07:53:03.104Z,81.14
2022-09-10T07:56:07.505Z,79.48
2022-09-10T07:59:13.496Z,77.73
2022-09-10T08:02:16.022Z,75.64
2022-09-10T08:12:53.659Z,70.02
2022-09-10T08:16:05.395Z,70.79
2022-09-10T08:19:15.051Z,68.81
2022-09-10T08:22:18.413Z,66.53
2022-09-10T08:25:25.136Z,66.41
2022-09-10T08:28:33.560Z,65.66
2022-09-10T08:31:37.207Z,64.00
2022-09-10T08:34:40.772Z,64.58
2022-09-10T08:37:43.825Z,63.67
2022-09-10T08:40:53.778Z,62.63
2022-09-10T08:44:12.662Z,62.64
2022-09-10T08:47:21.395Z,63.45
2022-09-10T08:50:36.455Z,62.43
2022-09-10T08:54:07.520Z,62.18
2022-09-10T08:57:53.057Z,61.73
2022-09-10T09:01:03.051Z,63.09
2022-09-10T09:08:48.424Z,59.35
2022-09-10T09:12:19.083Z,60.88
2022-09-10T09:15:31.867Z,58.32
2022-09-10T09:19:03.142Z,57.79
2022-09-10T09:22:28.332Z,56.75
2022-09-10T09:25:50.495Z,57.51
2022-09-10T09:29:08.170Z,58.49
2022-09-10T09:32:19.529Z,56.72
2022-09-10T09:35:31.597Z,57.38
2022-09-10T09:38:37.609Z,57.21
2022-09-10T09:42:05.980Z,54.43
2022-09-10T09:45:34.964Z,56.20
2022-09-10T09:48:42.205Z,55.08
2022-09-10T09:51:57.102Z,54.23
2022-09-10T09:55:14.369Z,54.32
2022-09-10T09:58:21.224Z,52.94
2022-09-10T10:01:25.253Z,52.62
2022-09-10T10:04:33.949Z,52.07
2022-09-10T10:07:42.127Z,52.91
2022-09-10T10:10:51.832Z,51.35
2022-09-10T10:14:11.961Z,52.07
2022-09-10T10:17:32.996Z,50.20
2022-09-10T10:20:41.359Z,50.11
2022-09-10T10:23:44.536Z,48.96
2022-09-10T10:27:05.361Z,49.77
2022-09-10T10:30:17.018Z,49.75
2022-09-10T10:33:37.763Z,48.57
2022-09-10T10:37:13.604Z,47.47
2022-09-10T10:40:30.630Z,47.90
2022-09-10T10:43:58.551Z,46.77
2022-09-10T10:47:19.252Z,46.32
2022-09-10T10:50:31.082Z,45.64
2022-09-10T10:54:15.425Z,45.32
2022-09-10T10:57:43.380Z,44.42
2022-09-10T11:01:01.574Z,43.99
2022-09-10T11:04:13.133Z,45.15
2022-09-10T11:07:34.935Z,44.75
2022-09-10T11:10:41.301Z,44.05
2022-09-10T11:13:51.536Z,44.33
2022-09-10T11:17:01.226Z,42.74
2022-09-10T11:20:30.117Z,43.76
2022-09-10T11:23:47.885Z,44.36
2022-09-10T11:26:59.940Z,42.92
2022-09-10T11:30:19.390Z,42.94
2022-09-10T11:33:46.963Z,42.62
2022-09-10T11:36:54.931Z,41.33
2022-09-10T11:39:59.877Z,39.35
2022-09-10T11:43:14.666Z,38.03
2022-09-10T11:46:24.404Z,37.93
2022-09-10T11:49:35.544Z,37.90
2022-09-10T11:52:38.540Z,36.37
2022-09-10T11:55:49.392Z,36.60
2022-09-10T11:59:23.134Z,36.95
2022-09-10T12:02:38.185Z,36.57
2022-09-10T12:06:15.307Z,36.02
2022-09-10T12:09:28.242Z,37.90
2022-09-10T12:12:37.817Z,36.70
2022-09-10T12:15:40.417Z,37.63
2022-09-10T12:18:45.630Z,36.24
2022-09-10T12:21:51.210Z,36.26
2022-09-10T12:25:06.333Z,35.95
2022-09-10T12:28:43.698Z,36.06
2022-09-10T12:32:21.742Z,37.32
2022-09-10T12:35:33.068Z,36.88
2022-09-10T12:38:44.884Z,35.82
2022-09-10T12:41:47.911Z,37.22
2022-09-10T12:44:50.385Z,39.14
2022-09-10T12:47:52.924Z,38.04
2022-09-10T12:51:00.707Z,36.61
2022-09-10T12:54:24.650Z,36.10
2022-09-10T12:58:02.765Z,36.18
2022-09-10T13:01:20.719Z,34.16
2022-09-10T13:04:28.804Z,35.33
2022-09-10T13:07:41.836Z,37.26
2022-09-10T13:11:03.578Z,36.65
2022-09-10T13:14:06.332Z,35.01
2022-09-10T13:17:57.526Z,35.26
2022-09-10T13:21:00.450Z,34.95
2022-09-10T13:24:03.245Z,35.45
2022-09-10T13:27:17.868Z,36.08
2022-09-10T13:30:27.624Z,35.30
2022-09-10T13:33:33.523Z,35.32
2022-09-10T13:36:53.891Z,33.60
2022-09-10T13:40:02.678Z,33.11
2022-09-10T13:43:21.027Z,32.60
2022-09-10T13:46:44.545Z,35.01
2022-09-10T13:49:53.870Z,33.77
2022-09-10T13:53:00.128Z,33.25
2022-09-10T13:56:13.562Z,33.91
2022-09-10T13:59:24.122Z,30.69
2022-09-10T14:02:47.736Z,30.86
2022-09-10T14:05:53.403Z,31.27
2022-09-10T14:09:03.912Z,31.07
2022-09-10T14:12:08.253Z,31.87
2022-09-10T14:15:17.405Z,31.11
2022-09-10T14:18:20.845Z,30.20
2022-09-10T14:21:27.296Z,30.39
2022-09-10T14:24:56.747Z,31.17
2022-09-10T14:28:24.946Z,31.64
2022-09-10T14:31:38.920Z,32.63
2022-09-10T14:34:41.397Z,35.34
2022-09-10T14:37:43.919Z,35.44
2022-09-10T14:40:47.840Z,34.53
2022-09-10T14:43:55.427Z,40.17
2022-09-10T14:47:20.610Z,36.20
2022-09-10T14:50:28.020Z,37.94
2022-09-10T14:53:30.569Z,38.12
2022-09-10T14:56:39.406Z,37.56
2022-09-10T14:59:59.154Z,37.22
2022-09-10T15:03:02.612Z,37.87
2022-09-10T15:06:10.597Z,36.72
2022-09-10T15:09:15.151Z,36.10
2022-09-10T15:12:26.673Z,37.84
2022-09-10T15:15:30.969Z,36.13
2022-09-10T15:18:33.593Z,37.20
2022-09-10T15:21:36.139Z,36.68
2022-09-10T15:24:58.769Z,36.23
2022-09-10T15:38:24.075Z,37.87
2022-09-10T15:41:26.921Z,35.92
2022-09-10T15:44:29.545Z,38.57
2022-09-10T15:47:36.381Z,39.54
2022-09-10T15:50:38.882Z,40.06
2022-09-10T15:53:50.108Z,39.98
2022-09-10T15:56:56.319Z,42.18
2022-09-10T16:00:09.468Z,43.82
2022-09-10T16:03:12.110Z,43.79
2022-09-10T16:06:15.912Z,43.60
2022-09-10T16:09:18.768Z,43.38
2022-09-10T16:12:21.605Z,44.11
2022-09-10T16:15:25.766Z,45.67
2022-09-10T16:18:32.449Z,46.39
2022-09-10T16:21:40.661Z,47.47
2022-09-10T16:24:46.413Z,48.10
2022-09-10T16:27:48.989Z,48.57
2022-09-10T16:34:19.021Z,49.97
2022-09-10T16:37:32.359Z,50.45
2022-09-10T16:40:34.936Z,50.90
2022-09-10T16:43:37.737Z,52.45
2022-09-10T16:46:40.788Z,54.38
2022-09-10T16:49:43.814Z,54.74
2022-09-10T16:52:48.998Z,55.39
2022-09-10T16:55:51.517Z,54.37
2022-09-10T16:58:54.265Z,54.75
2022-09-10T17:02:00.596Z,54.14
2022-09-10T17:05:03.729Z,54.26
2022-09-10T17:08:06.488Z,54.72
2022-09-10T17:11:08.945Z,55.10
2022-09-10T17:14:11.888Z,55.58
2022-09-10T17:17:14.580Z,56.37
2022-09-10T17:20:23.422Z,56.50
2022-09-10T17:23:35.245Z,56.76
2022-09-10T17:26:47.394Z,57.23
2022-09-10T17:29:49.893Z,57.90
2022-09-10T17:32:52.530Z,57.75
2022-09-10T17:36:02.520Z,58.29
2022-09-10T17:39:05.053Z,58.42
2022-09-10T17:42:07.590Z,58.82
2022-09-10T17:45:10.721Z,58.61
2022-09-10T17:48:13.236Z,59.24
2022-09-10T17:51:20.687Z,59.94
2022-09-10T17:54:24.008Z,60.52
2022-09-10T17:57:35.738Z,60.80
2022-09-10T18:00:40.875Z,61.06
2022-09-10T18:03:43.342Z,62.28
2022-09-10T18:06:50.197Z,62.05
2022-09-10T18:09:57.703Z,63.11
2022-09-10T18:13:00.623Z,63.88
2022-09-10T18:16:09.206Z,64.89
2022-09-10T18:19:19.518Z,65.76
2022-09-10T18:22:41.110Z,67.40
2022-09-10T18:25:47.853Z,67.05
2022-09-10T18:29:11.709Z,67.44
2022-09-10T18:32:15.064Z,67.75
2022-09-10T18:35:18.285Z,68.99
2022-09-10T18:38:23.181Z,68.91
2022-09-10T18:41:31.318Z,69.75
2022-09-10T18:44:39.801Z,70.42
2022-09-10T18:47:45.361Z,70.60
2022-09-10T18:50:54.191Z,71.35
2022-09-10T18:54:01.459Z,71.51
2022-09-10T18:57:07.743Z,71.96
2022-09-10T19:00:11.227Z,72.26
2022-09-10T19:03:13.781Z,72.33
2022-09-10T19:06:29.077Z,72.87
2022-09-10T19:09:31.871Z,72.67
2022-09-10T19:12:34.628Z,73.35
2022-09-10T19:15:41.339Z,73.35
2022-09-10T19:18:44.144Z,73.35
2022-09-10T19:25:06.710Z,73.56
2022-09-10T19:28:20.245Z,71.83
2022-09-10T19:31:31.466Z,71.11
2022-09-10T19:34:34.067Z,71.35
2022-09-10T19:37:36.523Z,71.12
2022-09-10T19:40:40.532Z,70.74
2022-09-10T19:43:43.166Z,70.01
2022-09-10T19:46:46.893Z,69.44
2022-09-10T19:49:51.982Z,68.80
2022-09-10T19:53:00.192Z,68.64
2022-09-10T19:56:19.735Z,68.16
2022-09-10T19:59:23.108Z,68.24
2022-09-10T20:02:25.638Z,67.87
2022-09-10T20:05:29.030Z,68.01
2022-09-10T20:08:34.061Z,67.01
2022-09-10T20:11:36.775Z,66.48
2022-09-10T20:14:39.315Z,65.54
2022-09-10T20:17:41.747Z,65.21
2022-09-10T20:20:44.812Z,64.83
2022-09-10T20:23:52.248Z,65.05
2022-09-10T20:27:00.362Z,64.93
2022-09-10T20:30:03.789Z,65.23
2022-09-10T20:40:20.177Z,65.31
2022-09-10T20:43:29.280Z,65.29
2022-09-10T20:46:32.449Z,65.05
2022-09-10T20:53:30.714Z,65.40
2022-09-10T20:56:33.499Z,65.68
2022-09-10T20:59:40.930Z,65.38
2022-09-10T21:02:46.976Z,65.37
2022-09-10T21:05:58.475Z,65.11
2022-09-10T21:09:02.251Z,65.23
2022-09-10T21:12:15.193Z,65.66
2022-09-10T21:15:21.334Z,66.05
2022-09-10T21:18:30.412Z,66.68
2022-09-10T21:21:34.717Z,66.73
2022-09-10T21:24:40.139Z,67.11
2022-09-10T21:27:44.242Z,67.74
2022-09-10T21:30:46.719Z,67.81
2022-09-10T21:41:44.031Z,69.31
2022-09-10T21:44:46.471Z,69.75
2022-09-10T21:47:53.284Z,69.82
2022-09-10T21:51:12.799Z,70.14
2022-09-10T22:01:45.741Z,70.60
2022-09-10T22:05:03.132Z,70.97
2022-09-10T22:08:07.259Z,71.40
2022-09-10T22:11:36.017Z,72.05
2022-09-10T22:14:38.627Z,72.50
2022-09-10T22:17:43.282Z,72.81
2022-09-10T22:20:45.747Z,73.58
2022-09-10T22:23:54.023Z,73.63
2022-09-10T22:27:01.776Z,73.45
2022-09-10T22:30:07.698Z,73.69
2022-09-10T22:33:10.094Z,74.20
2022-09-10T22:36:26.524Z,74.62
2022-09-10T22:39:37.306Z,75.37
2022-09-10T22:42:39.893Z,75.88
2022-09-10T22:45:42.279Z,75.84
2022-09-10T22:48:45.681Z,76.11
2022-09-10T22:51:58.778Z,76.74
2022-09-10T22:55:09.900Z,77.23
2022-09-10T22:58:12.991Z,77.58
2022-09-10T23:01:16.504Z,78.11
2022-09-10T23:04:25.949Z,78.43
2022-09-10T23:07:33.609Z,78.55
2022-09-10T23:10:42.031Z,78.80
2022-09-10T23:13:45.888Z,79.24
2022-09-10T23:20:12.450Z,79.81
2022-09-10T23:23:14.899Z,80.19
2022-09-10T23:26:19.893Z,80.77
2022-09-10T23:29:27.455Z,81.50
2022-09-10T23:32:30.046Z,82.00
2022-09-10T23:35:42.908Z,81.35
2022-09-10T23:38:45.575Z,82.35
2022-09-10T23:42:13.437Z,82.76
2022-09-10T23:45:15.869Z,83.37
2022-09-10T23:56:12.449Z,84.31
2022-09-10T23:59:15.488Z,84.46
